Home   Weather   USA   Tampa   Past weeks
Flag for USA

Past Weather in Tampa, Florida, USA — Yesterday and Last 2 Weeks

Currently: 86 °F. Sunny. (Weather station: Tampa, Peter O Knight Airport, USA). See more current weather

Past Weather in Tampa — Graph

°F

Tampa Temperature Yesterday

Maximum temperature yesterday: 82 °F (at 1:55 pm)
Minimum temperature yesterday: 55 °F (at 12:35 am)
Average temperature yesterday: 68 °F

High & Low Weather Summary for the Past Weeks

 TemperatureHumidityPressure
High86 °F (Feb 26, 2:15 pm)100% (Feb 12, 4:35 am)30.35 "Hg (Feb 12, 4:35 am)
Low46 °F (Feb 20, 6:55 am)33% (Feb 20, 2:55 pm)29.86 "Hg (Feb 13, 3:15 pm)
Average69 °F76%30.09 "Hg
* Reported Feb 11 3:15 pm — Feb 26 3:55 pm, Tampa. Weather by CustomWeather, © 2021

Note: Actual official high and low records may vary slightly from our data, if they occured in-between our weather recording intervals... More about our weather records

Tampa Weather History for the Previous 24 Hours

Scroll right to see more
 ConditionsComfort  
Time TempWeatherWind HumidityBarometerVisibility
3:55 pm
Fri, Feb 26
86 °FSunny.No wind38%30.11 "Hg10 mi
3:35 pm86 °FSunny.5 mph38%30.11 "Hg10 mi
3:15 pm86 °FSunny.5 mph40%30.11 "Hg10 mi
2:55 pm86 °FSunny.5 mph40%30.12 "Hg10 mi
2:35 pm84 °FScattered clouds.5 mph40%30.12 "Hg10 mi
2:15 pm86 °FOvercast.5 mph40%30.13 "Hg10 mi
1:55 pm84 °FOvercast.5 mph43%30.14 "Hg10 mi
1:35 pm84 °FOvercast.3 mph43%30.14 "Hg10 mi
1:15 pm82 °FOvercast.3 mph45%30.15 "Hg10 mi
12:55 pm82 °FOvercast.3 mph48%30.16 "Hg10 mi
12:35 pm82 °FOvercast.5 mph45%30.18 "Hg10 mi
12:15 pm81 °FMostly cloudy.3 mph48%30.18 "Hg10 mi
11:55 am81 °FMostly cloudy.5 mph51%30.19 "Hg10 mi
11:35 am79 °FMore clouds than sun.3 mph54%30.20 "Hg10 mi
11:15 am79 °FMostly cloudy.No wind54%30.20 "Hg10 mi
10:55 am79 °FOvercast.3 mph54%30.21 "Hg10 mi
10:35 am77 °FMostly cloudy.3 mph57%30.20 "Hg10 mi
10:15 am77 °FCloudy.3 mph57%30.20 "Hg10 mi
9:55 am75 °FOvercast.No wind61%30.19 "Hg10 mi
9:35 am73 °FOvercast.3 mph61%30.19 "Hg10 mi
9:15 am72 °FMostly cloudy.No wind65%30.19 "Hg10 mi
8:55 am70 °FOvercast.No wind69%30.19 "Hg10 mi
8:35 am68 °FMostly cloudy.No wind69%30.17 "Hg10 mi
8:15 am66 °FOvercast.No wind73%30.17 "Hg10 mi
7:55 am64 °FOvercast.No wind73%30.15 "Hg10 mi
7:35 am61 °FMostly cloudy.No wind83%30.15 "Hg10 mi
7:15 am59 °FPartly sunny.No wind82%30.14 "Hg10 mi
6:55 am59 °FPassing clouds.No wind82%30.14 "Hg10 mi
6:35 am61 °FPassing clouds.3 mph77%30.14 "Hg10 mi
6:15 am61 °FOvercast.No wind77%30.14 "Hg10 mi
5:55 am61 °FOvercast.No wind77%30.13 "Hg10 mi
5:35 am63 °FOvercast.No wind77%30.13 "Hg10 mi
5:15 am63 °FOvercast.No wind77%30.12 "Hg10 mi
4:55 am61 °FOvercast.3 mph83%30.12 "Hg10 mi
4:35 am63 °FMostly cloudy.3 mph77%30.12 "Hg10 mi
4:15 am64 °FMostly cloudy.5 mph73%30.11 "Hg10 mi
3:55 am64 °FMostly cloudy.3 mph73%30.11 "Hg10 mi
3:35 am63 °FMostly cloudy.No wind77%30.13 "Hg10 mi
3:15 am64 °FOvercast.No wind78%30.13 "Hg10 mi
2:55 am63 °FMostly cloudy.No wind88%30.13 "Hg10 mi
2:15 am63 °FOvercast.No wind94%30.16 "Hg10 mi
1:55 am64 °FMostly cloudy.3 mph88%30.16 "Hg10 mi
1:35 am64 °FMostly cloudy.6 mph94%30.16 "Hg10 mi
1:15 am64 °FOvercast.5 mph94%30.17 "Hg10 mi
12:55 am64 °FMostly cloudy.7 mph94%30.17 "Hg10 mi
12:35 am64 °FOvercast.6 mph94%30.17 "Hg10 mi
12:15 am64 °FMostly cloudy.8 mph94%30.18 "Hg10 mi
11:55 pm
Thu, Feb 25
64 °FOvercast.8 mph94%30.18 "Hg10 mi
11:35 pm66 °FOvercast.6 mph88%30.18 "Hg10 mi
11:15 pm66 °FMostly cloudy.5 mph88%30.19 "Hg10 mi
10:55 pm68 °FOvercast.6 mph83%30.19 "Hg10 mi
10:35 pm68 °FOvercast.No wind83%30.19 "Hg10 mi
10:15 pm68 °FOvercast.No wind83%30.19 "Hg10 mi
9:55 pm68 °FOvercast.No wind83%30.19 "Hg10 mi
9:35 pm70 °FOvercast.No wind78%30.18 "Hg10 mi
9:15 pm70 °FMostly cloudy.No wind78%30.18 "Hg10 mi
8:55 pm70 °FOvercast.5 mph78%30.17 "Hg10 mi
8:35 pm70 °FOvercast.No wind78%30.17 "Hg10 mi
8:15 pm72 °FPassing clouds.No wind73%30.16 "Hg10 mi
7:55 pm72 °FPassing clouds.3 mph73%30.15 "Hg10 mi
7:15 pm73 °FPassing clouds.3 mph69%30.14 "Hg10 mi
6:55 pm73 °FPassing clouds.3 mph69%30.14 "Hg10 mi
6:35 pm73 °FPassing clouds.5 mph74%30.13 "Hg10 mi
6:15 pm75 °FOvercast.6 mph69%30.13 "Hg10 mi
5:55 pm77 °FOvercast.5 mph61%30.13 "Hg10 mi
5:35 pm79 °FOvercast.5 mph54%30.13 "Hg10 mi
5:15 pm81 °FOvercast.3 mph48%30.13 "Hg10 mi
Weather by CustomWeather, © 2021

See weather overview